Time;durP1;ratioP1;P1;durP2;ratioP2;P2;SDS_P1;SDS_P2;PMS_P1;PMS_P2;Temp;Humidity;BMP_temperature;BMP_pressure;BME280_temperature;BME280_humidity;BME280_pressure;Samples;Min_cycle;Max_cycle;Signal;HPM_P1;HPM_P2
2023/06/30 00:00:40;;;;;;;3.60;2.58;;;;;;;;;;5115644;28;20084;-73
2023/06/30 00:03:07;;;;;;;7.03;2.83;;;;;;;;;;5115657;28;20019;-73
2023/06/30 00:05:34;;;;;;;3.30;2.22;;;;;;;;;;5115493;28;20028;-73
2023/06/30 00:08:00;;;;;;;3.88;2.70;;;;;;;;;;5097147;28;20027;-73
2023/06/30 00:10:26;;;;;;;2.88;2.50;;;;;;;;;;5115656;28;20019;-73
2023/06/30 00:12:52;;;;;;;4.80;2.35;;;;;;;;;;5115663;28;20016;-73
2023/06/30 00:15:19;;;;;;;2.47;2.25;;;;;;;;;;5097079;28;20034;-73
2023/06/30 00:17:48;;;;;;;4.00;2.30;;;;;;;;;;5115270;28;20023;-73
2023/06/30 00:20:14;;;;;;;3.22;2.42;;;;;;;;;;5115409;28;20035;-73
2023/06/30 00:22:41;;;;;;;2.92;2.50;;;;;;;;;;5115173;28;20011;-73
2023/06/30 00:25:07;;;;;;;3.40;2.35;;;;;;;;;;5115157;28;20042;-73
2023/06/30 00:27:33;;;;;;;2.40;2.20;;;;;;;;;;5115481;28;20026;-73
2023/06/30 00:30:00;;;;;;;3.83;2.47;;;;;;;;;;5114941;28;20032;-73
2023/06/30 00:32:31;;;;;;;4.45;2.30;;;;;;;;;;5115483;28;20042;-73
2023/06/30 00:34:58;;;;;;;3.22;2.17;;;;;;;;;;5115264;28;20016;-73
2023/06/30 00:37:24;;;;;;;2.47;1.70;;;;;;;;;;5114495;28;20023;-73
2023/06/30 00:39:50;;;;;;;3.10;1.83;;;;;;;;;;5115049;28;20046;-73
2023/06/30 00:42:17;;;;;;;2.53;2.25;;;;;;;;;;5115200;28;20024;-73
2023/06/30 00:44:43;;;;;;;2.70;1.80;;;;;;;;;;5115115;28;20035;-72
2023/06/30 00:47:09;;;;;;;3.15;2.50;;;;;;;;;;5114686;28;20484;-73
2023/06/30 00:49:36;;;;;;;2.60;2.20;;;;;;;;;;5096483;28;20024;-73
2023/06/30 00:52:02;;;;;;;2.85;2.20;;;;;;;;;;5114374;28;20027;-73
2023/06/30 00:54:29;;;;;;;3.25;2.38;;;;;;;;;;5114469;28;20020;-73
2023/06/30 00:56:58;;;;;;;2.42;2.15;;;;;;;;;;5114921;28;20039;-73
2023/06/30 00:59:25;;;;;;;2.10;1.90;;;;;;;;;;5114056;28;20012;-73
2023/06/30 01:01:51;;;;;;;2.75;1.75;;;;;;;;;;5114452;28;20031;-72
2023/06/30 01:04:18;;;;;;;2.38;1.92;;;;;;;;;;5113998;28;20529;-73
2023/06/30 01:06:52;;;;;;;3.85;1.90;;;;;;;;;;5114645;28;20026;-72
2023/06/30 01:09:22;;;;;;;2.13;1.85;;;;;;;;;;5114302;28;20024;-72
2023/06/30 01:11:48;;;;;;;2.47;1.60;;;;;;;;;;5114264;28;20024;-73
2023/06/30 01:14:16;;;;;;;4.80;1.75;;;;;;;;;;5114237;28;20030;-73
2023/06/30 01:16:43;;;;;;;3.58;1.63;;;;;;;;;;5114184;28;20394;-73
2023/06/30 01:19:48;;;;;;;2.00;1.70;;;;;;;;;;5113881;28;20027;-73
2023/06/30 01:22:25;;;;;;;2.30;1.77;;;;;;;;;;5011444;28;20541;-73
2023/06/30 01:24:55;;;;;;;3.63;1.83;;;;;;;;;;5011571;28;20041;-73
2023/06/30 01:27:22;;;;;;;4.38;1.75;;;;;;;;;;5011222;28;20067;-73
2023/06/30 01:29:49;;;;;;;2.90;1.92;;;;;;;;;;5011706;28;20033;-73
2023/06/30 01:32:16;;;;;;;6.00;1.90;;;;;;;;;;5011240;28;20045;-73
2023/06/30 01:34:46;;;;;;;2.75;1.85;;;;;;;;;;5011374;28;20075;-73
2023/06/30 01:37:13;;;;;;;2.95;1.85;;;;;;;;;;5011336;28;20479;-73
2023/06/30 01:39:40;;;;;;;2.63;1.75;;;;;;;;;;5011244;28;20545;-72
2023/06/30 01:42:06;;;;;;;2.30;1.70;;;;;;;;;;5011283;28;20044;-73
2023/06/30 01:44:34;;;;;;;4.00;1.90;;;;;;;;;;5011016;28;20022;-73
2023/06/30 01:47:01;;;;;;;1.88;1.70;;;;;;;;;;5011625;28;20068;-72
2023/06/30 01:49:28;;;;;;;2.33;1.73;;;;;;;;;;5010912;28;20036;-73
2023/06/30 01:51:54;;;;;;;1.70;1.60;;;;;;;;;;5016341;28;20033;-73
2023/06/30 01:54:21;;;;;;;2.97;2.28;;;;;;;;;;5075083;28;20028;-73
2023/06/30 01:56:48;;;;;;;2.53;1.90;;;;;;;;;;5092878;28;20425;-73
2023/06/30 01:59:15;;;;;;;2.35;2.15;;;;;;;;;;5092995;28;20108;-72
2023/06/30 02:01:41;;;;;;;3.22;2.30;;;;;;;;;;5093004;28;20031;-73
2023/06/30 02:04:09;;;;;;;4.68;2.75;;;;;;;;;;5092492;28;20012;-73
2023/06/30 02:06:35;;;;;;;8.05;2.95;;;;;;;;;;5074763;28;20068;-73
2023/06/30 02:09:02;;;;;;;6.43;2.95;;;;;;;;;;5092893;28;20046;-73
2023/06/30 02:11:28;;;;;;;6.28;3.13;;;;;;;;;;5091925;28;20050;-73
2023/06/30 02:13:54;;;;;;;4.20;3.08;;;;;;;;;;5092781;28;20498;-73
2023/06/30 02:16:21;;;;;;;6.20;3.67;;;;;;;;;;5074550;28;20488;-73
2023/06/30 02:18:47;;;;;;;4.05;3.30;;;;;;;;;;5108604;28;20039;-72
2023/06/30 02:21:13;;;;;;;5.97;3.70;;;;;;;;;;5113004;28;20076;-73
2023/06/30 02:23:41;;;;;;;5.15;3.70;;;;;;;;;;5112859;28;20035;-73
2023/06/30 02:26:07;;;;;;;4.50;3.92;;;;;;;;;;5112763;28;20032;-73
2023/06/30 02:28:33;;;;;;;5.55;3.85;;;;;;;;;;5113587;28;20031;-72
2023/06/30 02:31:00;;;;;;;3.85;3.45;;;;;;;;;;5091448;28;20048;-72
2023/06/30 02:33:26;;;;;;;5.72;3.92;;;;;;;;;;5092152;28;20380;-73
2023/06/30 02:35:52;;;;;;;8.63;3.63;;;;;;;;;;5092504;28;20034;-73
2023/06/30 02:38:19;;;;;;;5.22;3.53;;;;;;;;;;5092519;28;20022;-73
2023/06/30 02:40:45;;;;;;;5.72;4.20;;;;;;;;;;5092270;28;20040;-73
2023/06/30 02:43:11;;;;;;;4.95;4.07;;;;;;;;;;5092579;28;20016;-73
2023/06/30 02:45:38;;;;;;;9.07;4.35;;;;;;;;;;5092438;28;20031;-73
2023/06/30 02:48:04;;;;;;;6.68;3.83;;;;;;;;;;5090860;28;20024;-72
2023/06/30 02:50:31;;;;;;;6.22;4.20;;;;;;;;;;5091299;28;20113;-73
2023/06/30 02:53:00;;;;;;;6.72;4.30;;;;;;;;;;5092259;28;20028;-73
2023/06/30 02:55:27;;;;;;;6.07;4.63;;;;;;;;;;5092142;28;20020;-72
2023/06/30 02:57:54;;;;;;;7.32;4.22;;;;;;;;;;5092126;28;20028;-73
2023/06/30 03:00:20;;;;;;;5.63;3.65;;;;;;;;;;5091781;28;20020;-73
2023/06/30 03:02:47;;;;;;;5.85;4.03;;;;;;;;;;5092138;28;20392;-73
2023/06/30 03:05:13;;;;;;;8.20;4.45;;;;;;;;;;5091962;28;20498;-73
2023/06/30 03:07:40;;;;;;;6.40;4.28;;;;;;;;;;5092106;28;20032;-73
2023/06/30 03:10:06;;;;;;;5.53;4.35;;;;;;;;;;5091852;28;20488;-73
2023/06/30 03:12:33;;;;;;;5.72;4.28;;;;;;;;;;5091964;28;20027;-73
2023/06/30 03:14:59;;;;;;;7.78;4.68;;;;;;;;;;5091928;28;20093;-72
2023/06/30 03:17:25;;;;;;;5.85;3.90;;;;;;;;;;5091782;28;20038;-73
2023/06/30 03:19:51;;;;;;;4.57;4.18;;;;;;;;;;5092075;28;20024;-73
2023/06/30 03:22:18;;;;;;;5.35;3.85;;;;;;;;;;5094395;28;20020;-73
2023/06/30 03:24:44;;;;;;;5.78;4.22;;;;;;;;;;5095846;28;20392;-73
2023/06/30 03:27:10;;;;;;;5.97;4.15;;;;;;;;;;5096127;28;20031;-73
2023/06/30 03:29:37;;;;;;;5.03;3.80;;;;;;;;;;5095511;28;20023;-73
2023/06/30 03:32:03;;;;;;;7.03;4.10;;;;;;;;;;5112846;28;20411;-72
2023/06/30 03:34:29;;;;;;;6.32;3.85;;;;;;;;;;5116211;28;20472;-72
2023/06/30 03:36:56;;;;;;;6.78;3.80;;;;;;;;;;5116377;28;20032;-73
2023/06/30 03:39:22;;;;;;;8.05;3.65;;;;;;;;;;5116223;28;20031;-73
2023/06/30 03:41:48;;;;;;;6.15;4.35;;;;;;;;;;5116350;28;20030;-72
2023/06/30 03:44:15;;;;;;;6.90;4.55;;;;;;;;;;5115853;28;20030;-72
2023/06/30 03:46:41;;;;;;;6.63;4.90;;;;;;;;;;5115770;28;20030;-73
2023/06/30 03:49:07;;;;;;;7.85;4.93;;;;;;;;;;5115889;28;20490;-72
2023/06/30 03:51:33;;;;;;;6.88;4.75;;;;;;;;;;5116155;28;20030;-72
2023/06/30 03:54:00;;;;;;;11.38;4.78;;;;;;;;;;5115865;28;20027;-72
2023/06/30 03:56:26;;;;;;;6.55;4.95;;;;;;;;;;5115797;28;20020;-72
2023/06/30 03:58:52;;;;;;;7.53;4.63;;;;;;;;;;5115862;28;20031;-72
2023/06/30 04:01:19;;;;;;;15.85;5.00;;;;;;;;;;5115672;28;20020;-72
2023/06/30 04:03:46;;;;;;;7.72;5.15;;;;;;;;;;5116153;28;20028;-72
2023/06/30 04:06:12;;;;;;;8.02;4.85;;;;;;;;;;5115542;28;20406;-72
2023/06/30 04:08:39;;;;;;;8.60;5.28;;;;;;;;;;5115697;28;20019;-72
2023/06/30 04:11:05;;;;;;;8.75;4.97;;;;;;;;;;5115731;28;20034;-72
2023/06/30 04:13:31;;;;;;;6.85;4.50;;;;;;;;;;5115455;28;20024;-72
2023/06/30 04:15:58;;;;;;;12.40;4.45;;;;;;;;;;5115343;28;20079;-72
2023/06/30 04:18:24;;;;;;;5.53;4.07;;;;;;;;;;5115537;28;20019;-73
2023/06/30 04:20:50;;;;;;;6.65;4.30;;;;;;;;;;5115272;28;20032;-72
2023/06/30 04:23:17;;;;;;;5.97;4.00;;;;;;;;;;5115046;28;20403;-72
2023/06/30 04:25:43;;;;;;;7.22;3.90;;;;;;;;;;5115425;28;20487;-72
2023/06/30 04:28:09;;;;;;;8.18;3.97;;;;;;;;;;5114907;28;20024;-72
2023/06/30 04:30:36;;;;;;;4.97;3.88;;;;;;;;;;5115069;28;20044;-72
2023/06/30 04:33:02;;;;;;;4.30;3.65;;;;;;;;;;5114275;28;20023;-72
2023/06/30 04:35:28;;;;;;;4.70;3.30;;;;;;;;;;5115638;28;20008;-72
2023/06/30 04:37:55;;;;;;;4.15;3.22;;;;;;;;;;5115340;28;20064;-72
2023/06/30 04:40:21;;;;;;;4.40;3.40;;;;;;;;;;5115010;28;20024;-72
2023/06/30 04:42:47;;;;;;;5.82;3.05;;;;;;;;;;5114936;28;20022;-72
2023/06/30 04:45:13;;;;;;;4.95;2.90;;;;;;;;;;5115141;28;20039;-72
2023/06/30 04:47:40;;;;;;;5.25;2.65;;;;;;;;;;5114687;28;20493;-72
2023/06/30 04:50:06;;;;;;;2.67;2.40;;;;;;;;;;5114887;28;20038;-72
2023/06/30 04:52:33;;;;;;;9.68;2.25;;;;;;;;;;5114799;28;20016;-73
2023/06/30 04:54:59;;;;;;;2.88;2.20;;;;;;;;;;5114660;28;20034;-72
2023/06/30 04:57:26;;;;;;;2.10;1.90;;;;;;;;;;5114439;28;20027;-72
2023/06/30 04:59:54;;;;;;;3.22;1.80;;;;;;;;;;5114424;28;20064;-72
2023/06/30 05:02:21;;;;;;;2.00;1.80;;;;;;;;;;5114777;28;20012;-72
2023/06/30 05:04:49;;;;;;;2.13;1.80;;;;;;;;;;5114248;28;20321;-72
2023/06/30 05:07:15;;;;;;;2.13;1.70;;;;;;;;;;5114210;28;20038;-72
2023/06/30 05:09:41;;;;;;;2.08;1.73;;;;;;;;;;5114624;28;20028;-72
2023/06/30 05:12:08;;;;;;;4.22;1.80;;;;;;;;;;5113897;28;20400;-72
2023/06/30 05:14:34;;;;;;;3.13;1.75;;;;;;;;;;5114334;28;20024;-72
2023/06/30 05:17:01;;;;;;;2.30;1.60;;;;;;;;;;5113982;28;20377;-72
2023/06/30 05:19:27;;;;;;;1.30;1.20;;;;;;;;;;5114118;28;20031;-72
2023/06/30 05:21:53;;;;;;;2.35;1.42;;;;;;;;;;5114161;28;20033;-72
2023/06/30 05:24:20;;;;;;;1.55;1.45;;;;;;;;;;5114196;28;20058;-72
2023/06/30 05:26:46;;;;;;;1.35;1.25;;;;;;;;;;5113598;28;20026;-72
2023/06/30 05:29:12;;;;;;;1.50;1.40;;;;;;;;;;5114135;28;20144;-72
2023/06/30 05:31:39;;;;;;;1.58;1.45;;;;;;;;;;5113877;28;20039;-72
2023/06/30 05:34:05;;;;;;;1.40;1.30;;;;;;;;;;5095639;28;20095;-72
2023/06/30 05:36:31;;;;;;;2.05;1.23;;;;;;;;;;5113695;28;20023;-72
2023/06/30 05:38:58;;;;;;;2.63;1.33;;;;;;;;;;5113899;28;20016;-73
2023/06/30 05:41:24;;;;;;;1.35;1.10;;;;;;;;;;5113366;28;20468;-72
2023/06/30 05:43:50;;;;;;;2.03;1.40;;;;;;;;;;5113517;28;20093;-73
2023/06/30 05:46:17;;;;;;;2.88;1.10;;;;;;;;;;5113581;28;20038;-72
2023/06/30 05:48:43;;;;;;;1.77;1.13;;;;;;;;;;5113328;28;20028;-72
2023/06/30 05:51:09;;;;;;;1.40;1.13;;;;;;;;;;5113609;28;20430;-72
2023/06/30 05:53:36;;;;;;;1.02;0.90;;;;;;;;;;5113508;28;20019;-72
2023/06/30 05:56:02;;;;;;;0.90;0.90;;;;;;;;;;5113260;28;20028;-73
2023/06/30 05:58:28;;;;;;;0.80;0.80;;;;;;;;;;5113490;28;20024;-72
2023/06/30 06:00:54;;;;;;;1.08;0.98;;;;;;;;;;5113267;28;20020;-72
2023/06/30 06:03:21;;;;;;;2.10;0.90;;;;;;;;;;5113494;28;20030;-72
2023/06/30 06:05:47;;;;;;;2.22;0.90;;;;;;;;;;5112960;28;20035;-72
2023/06/30 06:08:13;;;;;;;1.90;1.58;;;;;;;;;;5113152;28;20076;-72
2023/06/30 06:10:40;;;;;;;3.20;1.90;;;;;;;;;;5112646;28;20028;-72
2023/06/30 06:13:06;;;;;;;4.38;2.55;;;;;;;;;;5112932;28;20034;-72
2023/06/30 06:15:32;;;;;;;3.45;2.15;;;;;;;;;;5110631;28;20034;-72
2023/06/30 06:17:58;;;;;;;3.08;1.92;;;;;;;;;;5110447;28;20027;-82
2023/06/30 06:20:25;;;;;;;3.60;1.50;;;;;;;;;;5111491;28;20031;-82
2023/06/30 06:22:51;;;;;;;1.95;1.00;;;;;;;;;;5112225;27;20012;-83
2023/06/30 06:25:17;;;;;;;1.85;1.17;;;;;;;;;;5111231;28;20049;-84
2023/06/30 06:27:44;;;;;;;4.10;1.33;;;;;;;;;;5118342;27;20023;-83
2023/06/30 06:30:10;;;;;;;2.35;1.00;;;;;;;;;;5110335;28;20027;-85
2023/06/30 06:32:37;;;;;;;2.70;1.15;;;;;;;;;;5112153;28;20084;-84
2023/06/30 06:35:03;;;;;;;1.63;1.27;;;;;;;;;;5112969;28;20026;-84
2023/06/30 06:37:29;;;;;;;3.95;1.27;;;;;;;;;;5111948;28;20432;-85
2023/06/30 06:39:56;;;;;;;2.38;1.27;;;;;;;;;;5111842;28;20011;-83
2023/06/30 06:42:22;;;;;;;1.92;1.38;;;;;;;;;;5111802;28;20028;-84
2023/06/30 06:44:48;;;;;;;2.92;1.30;;;;;;;;;;5111695;28;20031;-85
2023/06/30 06:47:33;;;;;;;1.85;1.20;;;;;;;;;;5111721;28;20034;-85
2023/06/30 06:50:00;;;;;;;3.30;1.30;;;;;;;;;;5112115;28;20016;-84
2023/06/30 06:52:26;;;;;;;2.90;1.10;;;;;;;;;;5111510;28;20027;-85
2023/06/30 06:54:53;;;;;;;3.30;1.40;;;;;;;;;;5111452;28;20069;-84
2023/06/30 06:57:19;;;;;;;2.17;1.50;;;;;;;;;;5111140;28;20498;-85
2023/06/30 06:59:45;;;;;;;2.65;1.42;;;;;;;;;;5111674;28;20060;-84
2023/06/30 07:02:12;;;;;;;1.60;1.40;;;;;;;;;;5112218;28;20020;-85
2023/06/30 07:04:38;;;;;;;3.08;1.77;;;;;;;;;;5111683;28;20379;-84
2023/06/30 07:07:04;;;;;;;3.40;1.88;;;;;;;;;;5111844;28;20807;-84
2023/06/30 07:09:31;;;;;;;1.85;1.33;;;;;;;;;;5110613;28;20080;-84
2023/06/30 07:11:57;;;;;;;2.45;1.83;;;;;;;;;;5111211;28;20036;-84
2023/06/30 07:14:23;;;;;;;2.70;1.98;;;;;;;;;;5111913;28;20050;-83
2023/06/30 07:16:51;;;;;;;4.45;1.83;;;;;;;;;;5112021;28;20007;-83
2023/06/30 07:19:17;;;;;;;2.83;1.90;;;;;;;;;;5092850;28;20031;-85
2023/06/30 07:21:43;;;;;;;2.92;2.22;;;;;;;;;;5108041;28;20023;-85
2023/06/30 07:24:10;;;;;;;5.00;2.33;;;;;;;;;;5110891;28;20068;-86
2023/06/30 07:26:36;;;;;;;3.88;2.83;;;;;;;;;;5113168;28;20031;-84
2023/06/30 07:29:02;;;;;;;5.53;3.42;;;;;;;;;;5112699;28;20495;-83
2023/06/30 07:31:31;;;;;;;5.40;3.97;;;;;;;;;;5111380;28;20518;-83
2023/06/30 07:33:57;;;;;;;5.05;3.92;;;;;;;;;;5110803;28;20019;-85
2023/06/30 07:36:24;;;;;;;7.55;3.92;;;;;;;;;;5099646;28;20026;-85
2023/06/30 07:38:50;;;;;;;6.70;4.45;;;;;;;;;;5113633;28;20526;-86
2023/06/30 07:41:16;;;;;;;8.32;4.57;;;;;;;;;;5132040;28;20026;-86
2023/06/30 07:43:42;;;;;;;7.03;4.38;;;;;;;;;;5127045;28;20026;-86
2023/06/30 07:46:09;;;;;;;6.90;4.90;;;;;;;;;;5111135;28;20054;-85
2023/06/30 07:48:35;;;;;;;7.25;4.57;;;;;;;;;;5110401;28;20076;-85
2023/06/30 07:51:02;;;;;;;6.97;4.85;;;;;;;;;;5111311;28;20050;-83
2023/06/30 07:53:28;;;;;;;7.97;5.22;;;;;;;;;;5093127;28;20024;-85
2023/06/30 07:55:54;;;;;;;7.35;4.63;;;;;;;;;;5111105;28;20024;-85
2023/06/30 07:58:22;;;;;;;9.35;5.53;;;;;;;;;;5111341;28;20019;-85
2023/06/30 08:00:49;;;;;;;10.38;6.45;;;;;;;;;;5111466;28;20023;-86
2023/06/30 08:03:15;;;;;;;12.30;6.93;;;;;;;;;;5111486;28;20016;-84
2023/06/30 08:05:41;;;;;;;14.30;9.80;;;;;;;;;;5110451;28;20096;-85
2023/06/30 08:08:08;;;;;;;10.07;6.95;;;;;;;;;;5111917;28;20053;-84
2023/06/30 08:10:35;;;;;;;9.10;6.30;;;;;;;;;;5113693;28;20027;-85
2023/06/30 08:13:01;;;;;;;12.77;6.15;;;;;;;;;;5114864;28;20957;-84
2023/06/30 08:15:28;;;;;;;12.63;7.10;;;;;;;;;;5117825;27;20034;-84
2023/06/30 08:17:54;;;;;;;11.63;7.50;;;;;;;;;;5126588;27;20016;-85
2023/06/30 08:20:20;;;;;;;10.10;6.68;;;;;;;;;;5114458;28;20031;-83
2023/06/30 08:22:47;;;;;;;14.48;6.93;;;;;;;;;;5114521;28;20479;-83
2023/06/30 08:25:13;;;;;;;9.32;7.22;;;;;;;;;;5114514;28;20043;-83
2023/06/30 08:27:39;;;;;;;11.68;7.72;;;;;;;;;;5114733;28;20026;-82
2023/06/30 08:30:06;;;;;;;13.13;8.43;;;;;;;;;;5095976;28;20471;-82
2023/06/30 08:32:32;;;;;;;12.00;7.63;;;;;;;;;;5113621;28;20028;-81
2023/06/30 08:34:59;;;;;;;12.13;7.90;;;;;;;;;;5113319;28;20024;-81
2023/06/30 08:37:25;;;;;;;13.48;8.75;;;;;;;;;;5114137;28;20484;-82
2023/06/30 08:39:51;;;;;;;11.02;8.27;;;;;;;;;;5114618;28;20027;-83
2023/06/30 08:42:22;;;;;;;12.75;8.15;;;;;;;;;;5114194;28;20030;-83
2023/06/30 08:44:52;;;;;;;11.05;7.75;;;;;;;;;;5113991;28;20026;-83
2023/06/30 08:47:19;;;;;;;13.43;8.48;;;;;;;;;;5114302;28;20036;-83
2023/06/30 08:49:47;;;;;;;17.63;8.55;;;;;;;;;;5114188;28;20025;-83
2023/06/30 08:52:15;;;;;;;13.82;8.88;;;;;;;;;;5113002;28;20035;-82
2023/06/30 08:54:41;;;;;;;12.65;9.00;;;;;;;;;;5113500;28;20023;-83
2023/06/30 08:57:08;;;;;;;14.20;9.00;;;;;;;;;;5113939;28;20397;-83
2023/06/30 08:59:35;;;;;;;30.60;9.57;;;;;;;;;;5113893;28;20466;-82
2023/06/30 09:02:02;;;;;;;17.67;9.18;;;;;;;;;;5113751;28;20022;-82
2023/06/30 09:04:29;;;;;;;13.85;9.88;;;;;;;;;;5113437;28;20022;-82
2023/06/30 09:06:56;;;;;;;13.07;9.07;;;;;;;;;;5113814;28;20036;-80
2023/06/30 09:09:30;;;;;;;16.00;10.05;;;;;;;;;;5113332;28;20034;-82
2023/06/30 09:11:56;;;;;;;16.08;11.45;;;;;;;;;;5113780;28;20028;-83
2023/06/30 09:14:23;;;;;;;15.27;11.13;;;;;;;;;;5113665;28;20506;-83
2023/06/30 09:16:50;;;;;;;15.02;10.88;;;;;;;;;;5113611;28;20390;-83
2023/06/30 09:19:17;;;;;;;16.67;11.05;;;;;;;;;;5112546;28;20492;-83
2023/06/30 09:21:43;;;;;;;19.00;10.65;;;;;;;;;;5095666;28;20031;-83
2023/06/30 09:24:09;;;;;;;12.80;9.95;;;;;;;;;;5113767;28;20038;-84
2023/06/30 09:26:36;;;;;;;15.38;9.95;;;;;;;;;;5113090;28;20377;-83
2023/06/30 09:29:02;;;;;;;14.30;10.45;;;;;;;;;;5113723;28;20018;-83
2023/06/30 09:31:29;;;;;;;17.13;9.95;;;;;;;;;;5112707;28;20105;-82
2023/06/30 09:34:06;;;;;;;17.80;10.60;;;;;;;;;;5112567;28;20027;-83
2023/06/30 09:36:34;;;;;;;17.20;10.20;;;;;;;;;;5088170;28;20027;-83
2023/06/30 09:39:00;;;;;;;14.00;10.32;;;;;;;;;;5113304;28;20472;-84
2023/06/30 09:41:27;;;;;;;12.82;10.20;;;;;;;;;;5094435;28;20035;-84
2023/06/30 09:43:57;;;;;;;13.75;9.80;;;;;;;;;;5112627;28;20407;-82
2023/06/30 09:46:23;;;;;;;13.98;9.13;;;;;;;;;;5112054;28;20034;-83
2023/06/30 09:48:54;;;;;;;14.38;9.10;;;;;;;;;;5112180;28;20042;-83
2023/06/30 09:51:23;;;;;;;12.57;8.43;;;;;;;;;;5112799;28;20557;-84
2023/06/30 09:53:54;;;;;;;15.32;9.00;;;;;;;;;;5111417;28;20491;-81
2023/06/30 09:56:21;;;;;;;11.13;8.48;;;;;;;;;;5112953;28;20035;-83
2023/06/30 09:58:48;;;;;;;10.55;7.55;;;;;;;;;;5112249;28;20037;-83
2023/06/30 10:01:21;;;;;;;12.77;8.07;;;;;;;;;;5112592;28;20031;-84
2023/06/30 10:03:48;;;;;;;12.98;7.18;;;;;;;;;;5112256;28;20468;-84
2023/06/30 10:06:16;;;;;;;14.32;8.20;;;;;;;;;;5111952;28;20039;-84
2023/06/30 10:08:44;;;;;;;12.85;7.60;;;;;;;;;;5112637;28;20383;-84
2023/06/30 10:11:10;;;;;;;12.88;7.32;;;;;;;;;;5112723;28;20016;-84
2023/06/30 10:13:36;;;;;;;11.68;6.47;;;;;;;;;;5112795;28;20024;-84
2023/06/30 10:16:03;;;;;;;9.45;6.55;;;;;;;;;;5120235;27;20033;-84
2023/06/30 10:18:30;;;;;;;10.48;6.40;;;;;;;;;;5119112;27;20022;-84
2023/06/30 10:20:57;;;;;;;8.48;6.05;;;;;;;;;;5094662;28;20027;-84
2023/06/30 10:23:23;;;;;;;7.50;6.15;;;;;;;;;;5112496;28;20028;-84
2023/06/30 10:25:50;;;;;;;6.97;5.68;;;;;;;;;;5111896;28;20441;-85
2023/06/30 10:28:17;;;;;;;8.70;6.03;;;;;;;;;;5112324;28;20034;-84
2023/06/30 10:30:44;;;;;;;13.52;6.70;;;;;;;;;;5110992;28;20051;-84
2023/06/30 10:33:10;;;;;;;8.52;6.63;;;;;;;;;;5112316;28;20079;-83
2023/06/30 10:35:37;;;;;;;9.80;5.65;;;;;;;;;;5112087;28;20031;-85
2023/06/30 10:38:04;;;;;;;11.25;6.97;;;;;;;;;;5112447;28;20020;-84
2023/06/30 10:40:30;;;;;;;7.47;5.90;;;;;;;;;;5112221;28;20464;-85
2023/06/30 10:42:58;;;;;;;7.45;5.82;;;;;;;;;;5112431;28;20019;-86
2023/06/30 10:45:33;;;;;;;8.23;5.35;;;;;;;;;;5093495;28;20042;-85
2023/06/30 10:48:09;;;;;;;5.75;4.55;;;;;;;;;;5112228;28;20032;-86
2023/06/30 10:50:42;;;;;;;7.85;5.32;;;;;;;;;;5112086;28;20027;-85
2023/06/30 10:53:08;;;;;;;6.78;5.20;;;;;;;;;;5112015;28;20024;-85
2023/06/30 10:55:35;;;;;;;8.63;5.05;;;;;;;;;;5112553;28;20028;-85
2023/06/30 10:58:02;;;;;;;6.78;5.22;;;;;;;;;;5112393;28;20030;-85
2023/06/30 11:00:31;;;;;;;6.32;4.72;;;;;;;;;;5111892;28;20022;-86
2023/06/30 11:02:58;;;;;;;5.78;5.00;;;;;;;;;;5109301;28;20015;-85
2023/06/30 11:05:28;;;;;;;6.18;4.75;;;;;;;;;;5111884;28;20032;-86
2023/06/30 11:08:09;;;;;;;8.27;4.80;;;;;;;;;;5111790;28;20028;-86
2023/06/30 11:10:50;;;;;;;6.93;4.70;;;;;;;;;;5093327;28;20028;-85
2023/06/30 11:13:16;;;;;;;5.80;4.70;;;;;;;;;;5111387;28;20050;-85
2023/06/30 11:15:42;;;;;;;13.07;4.65;;;;;;;;;;5112053;28;20027;-85
2023/06/30 11:18:15;;;;;;;5.00;4.35;;;;;;;;;;5111655;28;20024;-84
2023/06/30 11:21:00;;;;;;;11.00;4.88;;;;;;;;;;5111812;28;20015;-84
2023/06/30 11:23:39;;;;;;;8.00;3.80;;;;;;;;;;5111780;28;20410;-84
2023/06/30 11:26:12;;;;;;;7.30;5.05;;;;;;;;;;5111625;28;20046;-85
2023/06/30 11:28:39;;;;;;;6.95;3.92;;;;;;;;;;5093075;28;20031;-84
2023/06/30 11:31:06;;;;;;;8.18;4.10;;;;;;;;;;5111902;28;20043;-84
2023/06/30 11:33:34;;;;;;;4.80;3.78;;;;;;;;;;5111276;28;20034;-84
2023/06/30 11:36:00;;;;;;;5.75;4.10;;;;;;;;;;5111263;28;20028;-84
2023/06/30 11:38:26;;;;;;;6.85;4.32;;;;;;;;;;5111481;28;20034;-84
2023/06/30 11:40:56;;;;;;;6.15;4.03;;;;;;;;;;5108063;28;20023;-85
2023/06/30 11:43:23;;;;;;;5.28;3.50;;;;;;;;;;5093232;28;20020;-83
2023/06/30 11:45:57;;;;;;;6.55;3.88;;;;;;;;;;5095009;28;20036;-85
2023/06/30 11:48:24;;;;;;;6.93;4.57;;;;;;;;;;5106704;27;20020;-83
2023/06/30 11:50:50;;;;;;;7.95;3.83;;;;;;;;;;5115258;28;20035;-81
2023/06/30 11:53:17;;;;;;;4.90;3.25;;;;;;;;;;5117204;27;20034;-82
2023/06/30 11:55:44;;;;;;;9.65;3.55;;;;;;;;;;5130123;27;20016;-82
2023/06/30 11:58:10;;;;;;;8.05;3.55;;;;;;;;;;5114469;28;20464;-83
2023/06/30 12:00:37;;;;;;;5.70;3.08;;;;;;;;;;5115028;28;20038;-82
2023/06/30 12:03:04;;;;;;;8.20;3.08;;;;;;;;;;5112507;28;20030;-82
2023/06/30 12:05:30;;;;;;;3.90;2.60;;;;;;;;;;5099067;27;20037;-82
2023/06/30 12:07:56;;;;;;;3.45;2.65;;;;;;;;;;5135073;27;20027;-82
2023/06/30 12:10:36;;;;;;;4.38;2.65;;;;;;;;;;5125887;27;20026;-81
2023/06/30 12:13:06;;;;;;;2.67;2.47;;;;;;;;;;5114072;28;20100;-83
2023/06/30 12:15:32;;;;;;;3.90;2.70;;;;;;;;;;5113933;28;20026;-83
2023/06/30 12:17:58;;;;;;;9.00;2.70;;;;;;;;;;5114143;28;20027;-84
2023/06/30 12:20:35;;;;;;;2.92;2.10;;;;;;;;;;5113944;28;20711;-83
2023/06/30 12:23:05;;;;;;;4.50;2.50;;;;;;;;;;5110058;28;20428;-83
2023/06/30 12:25:33;;;;;;;3.90;2.47;;;;;;;;;;5102503;28;20092;-83
2023/06/30 12:27:59;;;;;;;3.78;2.20;;;;;;;;;;5113393;28;20476;-83
2023/06/30 12:30:28;;;;;;;3.00;2.00;;;;;;;;;;5114040;28;20035;-83
2023/06/30 12:32:58;;;;;;;9.95;2.10;;;;;;;;;;5113610;28;20422;-83
2023/06/30 12:35:31;;;;;;;5.03;1.92;;;;;;;;;;5095745;28;20643;-82
2023/06/30 12:37:59;;;;;;;3.53;1.90;;;;;;;;;;5113835;28;20034;-81
2023/06/30 12:40:28;;;;;;;3.40;1.85;;;;;;;;;;5113871;28;20024;-82
2023/06/30 12:42:54;;;;;;;3.25;1.77;;;;;;;;;;5124661;27;20030;-82
2023/06/30 12:45:20;;;;;;;3.95;1.85;;;;;;;;;;5115848;27;20026;-81
2023/06/30 12:47:47;;;;;;;2.47;1.80;;;;;;;;;;5113703;28;20027;-82
2023/06/30 12:50:13;;;;;;;2.58;1.42;;;;;;;;;;5113239;28;20096;-82
2023/06/30 12:52:40;;;;;;;2.42;1.45;;;;;;;;;;5113581;28;20472;-82
2023/06/30 12:55:06;;;;;;;1.45;1.35;;;;;;;;;;5112053;28;20371;-82
2023/06/30 12:57:33;;;;;;;3.72;1.63;;;;;;;;;;5113330;28;20024;-82
2023/06/30 12:59:59;;;;;;;2.33;1.35;;;;;;;;;;5113389;28;20540;-81
2023/06/30 13:02:26;;;;;;;2.85;1.60;;;;;;;;;;5112963;28;20042;-83
2023/06/30 13:04:52;;;;;;;3.13;1.52;;;;;;;;;;5112986;28;20015;-81
2023/06/30 13:07:18;;;;;;;2.75;1.50;;;;;;;;;;5113503;28;20024;-80
2023/06/30 13:09:48;;;;;;;1.92;1.20;;;;;;;;;;5110387;28;20068;-81
2023/06/30 13:12:16;;;;;;;3.13;1.60;;;;;;;;;;5113548;28;20037;-80
2023/06/30 13:14:42;;;;;;;1.30;1.20;;;;;;;;;;5113429;28;20027;-81
2023/06/30 13:17:08;;;;;;;2.95;1.30;;;;;;;;;;5112850;28;20026;-82
2023/06/30 13:19:35;;;;;;;4.18;1.30;;;;;;;;;;5094925;28;20403;-83
2023/06/30 13:22:01;;;;;;;2.70;1.50;;;;;;;;;;5112498;28;20546;-82
2023/06/30 13:24:28;;;;;;;1.77;1.30;;;;;;;;;;5112624;28;20030;-85
2023/06/30 13:26:54;;;;;;;4.35;1.50;;;;;;;;;;5112909;28;20395;-83
2023/06/30 13:29:20;;;;;;;5.03;1.45;;;;;;;;;;5112933;28;20035;-83
2023/06/30 13:31:47;;;;;;;3.53;1.42;;;;;;;;;;5112838;28;20046;-84
2023/06/30 13:34:13;;;;;;;4.57;1.48;;;;;;;;;;5112703;28;20026;-82
2023/06/30 13:36:40;;;;;;;3.22;1.45;;;;;;;;;;5112831;28;20026;-81
2023/06/30 13:39:06;;;;;;;2.95;1.50;;;;;;;;;;5112518;28;20028;-83
2023/06/30 13:41:33;;;;;;;2.63;1.33;;;;;;;;;;5093773;28;20034;-82
2023/06/30 13:43:59;;;;;;;3.40;1.40;;;;;;;;;;5093827;28;20049;-83
2023/06/30 13:46:25;;;;;;;2.50;1.60;;;;;;;;;;5112605;28;20438;-83
2023/06/30 13:48:52;;;;;;;2.05;1.30;;;;;;;;;;5112481;28;20028;-84
2023/06/30 13:51:18;;;;;;;2.67;1.30;;;;;;;;;;5112647;28;20026;-83
2023/06/30 13:53:44;;;;;;;5.70;1.35;;;;;;;;;;5112423;28;20029;-81
2023/06/30 13:56:11;;;;;;;3.13;1.30;;;;;;;;;;5112613;28;20035;-84
2023/06/30 13:58:37;;;;;;;2.38;1.33;;;;;;;;;;5112247;28;20083;-82
2023/06/30 14:01:05;;;;;;;4.38;1.40;;;;;;;;;;5112684;28;20036;-82
2023/06/30 14:03:32;;;;;;;3.33;1.42;;;;;;;;;;5111959;28;20030;-84
2023/06/30 14:05:58;;;;;;;2.35;1.42;;;;;;;;;;5112117;28;20373;-81
2023/06/30 14:08:24;;;;;;;4.55;1.20;;;;;;;;;;5111871;28;20027;-81
2023/06/30 14:10:50;;;;;;;3.65;1.40;;;;;;;;;;5093315;28;20019;-82
2023/06/30 14:13:17;;;;;;;4.13;1.35;;;;;;;;;;5112021;28;20024;-81
2023/06/30 14:15:43;;;;;;;2.90;1.23;;;;;;;;;;5093897;28;20054;-79
2023/06/30 14:18:09;;;;;;;5.25;1.35;;;;;;;;;;5110463;28;20487;-80
2023/06/30 14:20:36;;;;;;;4.65;1.40;;;;;;;;;;5111431;28;20023;-79
2023/06/30 14:23:02;;;;;;;5.53;1.58;;;;;;;;;;5111722;27;20395;-81
2023/06/30 14:25:28;;;;;;;4.18;1.25;;;;;;;;;;5112518;27;20490;-81
2023/06/30 14:27:55;;;;;;;2.28;1.17;;;;;;;;;;5111297;28;20030;-81
2023/06/30 14:30:28;;;;;;;3.17;1.33;;;;;;;;;;5111578;28;20489;-81
2023/06/30 14:32:54;;;;;;;2.58;1.30;;;;;;;;;;5110967;28;20026;-80
2023/06/30 14:35:22;;;;;;;3.72;1.45;;;;;;;;;;5075399;28;20051;-81
2023/06/30 14:37:48;;;;;;;4.38;1.40;;;;;;;;;;5110868;28;20027;-81
2023/06/30 14:40:14;;;;;;;5.05;1.20;;;;;;;;;;5111026;28;20046;-81